Time;durP1;ratioP1;P1;durP2;ratioP2;P2;SDS_P1;SDS_P2;PMS_P1;PMS_P2;Temp;Humidity;BMP_temperature;BMP_pressure;BME280_temperature;BME280_humidity;BME280_pressure;Samples;Min_cycle;Max_cycle;Signal;HPM_P1;HPM_P2
2022/08/29 00:00:14;;;;;;;7.07;2.50;;;15.10;99.90;;;;;;5034708;28;20113;-79
2022/08/29 00:02:39;;;;;;;6.82;2.47;;;15.10;99.90;;;;;;5017106;28;20091;-79
2022/08/29 00:05:06;;;;;;;6.32;2.95;;;15.10;99.90;;;;;;5031828;28;20045;-79
2022/08/29 00:07:36;;;;;;;6.97;2.70;;;15.00;99.90;;;;;;5031974;28;20132;-79
2022/08/29 00:10:05;;;;;;;8.18;2.90;;;15.10;99.90;;;;;;5036225;28;20075;-79
2022/08/29 00:12:31;;;;;;;7.05;2.83;;;15.10;99.90;;;;;;5032303;28;20069;-79
2022/08/29 00:14:57;;;;;;;5.45;2.75;;;15.20;99.90;;;;;;5028517;28;20076;-79
2022/08/29 00:17:22;;;;;;;6.85;2.92;;;15.10;99.90;;;;;;5038254;28;20494;-79
2022/08/29 00:19:48;;;;;;;5.88;2.63;;;15.20;99.90;;;;;;5019011;28;20030;-79
2022/08/29 00:22:13;;;;;;;6.15;2.60;;;15.10;99.90;;;;;;5055402;28;20032;-79
2022/08/29 00:24:39;;;;;;;8.18;2.75;;;15.20;99.90;;;;;;5034008;28;20049;-79
2022/08/29 00:27:05;;;;;;;7.07;2.95;;;15.10;99.90;;;;;;5031103;28;20075;-79
2022/08/29 00:29:34;;;;;;;5.88;2.50;;;15.10;99.90;;;;;;5030677;28;20045;-79
2022/08/29 00:32:02;;;;;;;5.03;2.70;;;15.10;99.90;;;;;;5044273;28;20514;-79
2022/08/29 00:34:28;;;;;;;5.78;2.83;;;15.20;99.90;;;;;;5032994;28;20049;-79
2022/08/29 00:36:53;;;;;;;6.05;2.97;;;15.20;99.90;;;;;;5021192;28;20037;-79
2022/08/29 00:39:22;;;;;;;7.22;3.00;;;15.20;99.90;;;;;;5045629;28;20064;-79
2022/08/29 00:41:48;;;;;;;6.18;2.70;;;15.10;99.90;;;;;;5035316;28;20033;-79
2022/08/29 00:44:13;;;;;;;6.32;3.00;;;15.20;99.90;;;;;;5040153;28;20052;-79
2022/08/29 00:46:39;;;;;;;9.68;3.35;;;15.50;99.90;;;;;;5033481;28;20049;-79
2022/08/29 00:49:10;;;;;;;6.82;2.78;;;15.20;99.90;;;;;;5014407;28;20600;-79
2022/08/29 00:51:36;;;;;;;8.13;3.00;;;15.10;99.90;;;;;;5015438;28;20444;-79
2022/08/29 00:54:06;;;;;;;6.82;2.80;;;15.20;99.90;;;;;;5013449;28;20041;-79
2022/08/29 00:56:33;;;;;;;6.95;3.03;;;15.20;99.90;;;;;;5025949;28;20045;-79
2022/08/29 00:59:05;;;;;;;6.15;3.10;;;15.20;99.90;;;;;;5048975;28;20042;-79
2022/08/29 01:01:31;;;;;;;8.82;3.35;;;15.40;99.90;;;;;;5033591;28;20041;-79
2022/08/29 01:03:56;;;;;;;6.70;2.92;;;15.20;99.90;;;;;;5025584;28;20038;-79
2022/08/29 01:06:25;;;;;;;6.28;2.92;;;15.30;99.90;;;;;;5015261;28;20064;-79
2022/08/29 01:08:52;;;;;;;5.57;2.70;;;15.20;99.90;;;;;;5041505;28;20037;-79
2022/08/29 01:14:04;;;;;;;6.63;2.80;;;15.60;99.90;;;;;;5034362;28;20132;-79
2022/08/29 01:16:31;;;;;;;7.45;3.05;;;15.10;99.90;;;;;;5019578;28;20061;-79
2022/08/29 01:19:12;;;;;;;7.07;2.90;;;15.20;99.90;;;;;;5012352;28;20041;-79
2022/08/29 01:21:52;;;;;;;9.45;3.05;;;15.20;99.90;;;;;;5010880;28;20097;-80
2022/08/29 01:24:38;;;;;;;6.75;2.78;;;15.20;99.90;;;;;;5030353;28;20110;-79
2022/08/29 01:27:05;;;;;;;8.15;2.70;;;15.20;99.90;;;;;;5017215;28;20068;-80
2022/08/29 01:29:31;;;;;;;7.78;3.30;;;15.20;99.90;;;;;;5033749;28;20125;-79
2022/08/29 01:31:59;;;;;;;7.20;3.03;;;15.20;99.90;;;;;;5050401;28;20045;-79
2022/08/29 01:34:26;;;;;;;6.43;3.00;;;15.20;99.90;;;;;;5028644;28;20115;-79
2022/08/29 01:36:59;;;;;;;6.53;3.22;;;15.30;99.90;;;;;;5016609;28;20402;-79
2022/08/29 01:39:29;;;;;;;6.13;2.92;;;15.20;99.90;;;;;;5025943;28;20033;-79
2022/08/29 01:41:57;;;;;;;8.60;3.58;;;15.30;99.90;;;;;;5036208;28;20049;-79
2022/08/29 01:44:26;;;;;;;7.00;3.40;;;15.20;99.90;;;;;;5031370;28;20048;-79
2022/08/29 01:46:56;;;;;;;7.55;3.40;;;15.20;99.90;;;;;;5021090;28;20502;-78
2022/08/29 01:49:22;;;;;;;7.47;3.03;;;15.20;99.90;;;;;;5033173;28;20147;-79
2022/08/29 01:51:48;;;;;;;7.60;3.75;;;15.20;99.90;;;;;;5039152;28;20501;-79
2022/08/29 01:54:18;;;;;;;8.07;3.20;;;15.20;99.90;;;;;;5048518;28;20060;-79
2022/08/29 01:56:48;;;;;;;6.50;3.10;;;15.30;99.90;;;;;;5031398;28;20069;-78
2022/08/29 01:59:18;;;;;;;7.93;3.20;;;15.20;99.90;;;;;;5046321;28;20038;-78
2022/08/29 02:01:50;;;;;;;9.23;3.28;;;15.20;99.90;;;;;;5015846;28;20509;-78
2022/08/29 02:04:16;;;;;;;7.57;3.20;;;15.30;99.90;;;;;;5038431;28;20116;-78
2022/08/29 02:06:42;;;;;;;6.18;3.08;;;15.20;99.90;;;;;;5025844;28;20061;-78
2022/08/29 02:09:07;;;;;;;8.60;3.92;;;15.50;99.90;;;;;;5043254;28;20501;-78
2022/08/29 02:11:37;;;;;;;7.55;3.30;;;15.30;99.90;;;;;;5026032;28;20071;-78
2022/08/29 02:14:03;;;;;;;11.93;3.78;;;15.20;99.90;;;;;;5050826;28;20044;-79
2022/08/29 02:16:31;;;;;;;7.70;3.33;;;15.20;99.90;;;;;;5034446;28;20033;-79
2022/08/29 02:18:58;;;;;;;6.47;3.30;;;15.20;99.90;;;;;;5029342;28;20037;-79
2022/08/29 02:21:27;;;;;;;8.52;3.83;;;15.20;99.90;;;;;;5032132;28;20140;-79
2022/08/29 02:23:54;;;;;;;6.68;3.50;;;15.20;99.90;;;;;;5015952;28;20048;-79
2022/08/29 02:26:22;;;;;;;7.75;3.35;;;15.30;99.90;;;;;;5033454;28;20038;-79
2022/08/29 02:28:51;;;;;;;7.93;3.45;;;15.20;99.90;;;;;;5022658;28;20110;-79
2022/08/29 02:31:18;;;;;;;8.57;3.75;;;15.30;99.90;;;;;;5031001;28;20042;-78
2022/08/29 02:33:45;;;;;;;5.65;3.38;;;15.20;99.90;;;;;;5034137;28;20397;-78
2022/08/29 02:36:11;;;;;;;7.35;3.55;;;15.30;99.90;;;;;;5032986;28;20112;-79
2022/08/29 02:38:38;;;;;;;8.65;3.40;;;15.30;99.90;;;;;;5028769;28;20071;-78
2022/08/29 02:41:04;;;;;;;7.95;3.30;;;15.30;99.90;;;;;;5033836;28;20045;-79
2022/08/29 02:43:31;;;;;;;7.55;3.47;;;15.30;99.90;;;;;;5035265;28;20045;-79
2022/08/29 02:45:57;;;;;;;8.32;3.70;;;15.30;99.90;;;;;;5033634;28;20041;-79
2022/08/29 02:48:23;;;;;;;5.90;3.38;;;15.30;99.90;;;;;;5030924;28;20572;-79
2022/08/29 02:50:52;;;;;;;7.00;3.35;;;15.30;99.90;;;;;;5021925;28;20041;-79
2022/08/29 02:53:23;;;;;;;7.65;3.60;;;15.30;99.90;;;;;;5031073;28;20038;-79
2022/08/29 02:55:50;;;;;;;6.93;3.20;;;15.30;99.90;;;;;;5032031;28;20041;-79
2022/08/29 02:58:17;;;;;;;7.35;3.90;;;15.40;99.90;;;;;;5010955;28;20121;-79
2022/08/29 03:00:46;;;;;;;8.30;3.38;;;15.30;99.90;;;;;;5034470;28;20501;-78
2022/08/29 03:03:12;;;;;;;7.88;3.35;;;15.30;99.90;;;;;;5011615;28;20040;-78
2022/08/29 03:05:38;;;;;;;8.63;3.90;;;15.30;99.90;;;;;;5033022;28;20124;-79
2022/08/29 03:08:10;;;;;;;8.63;3.22;;;15.40;99.90;;;;;;5026177;28;20042;-79
2022/08/29 03:10:36;;;;;;;5.78;2.90;;;15.30;99.90;;;;;;5032602;28;20359;-80
2022/08/29 03:13:03;;;;;;;9.30;3.13;;;15.40;99.90;;;;;;5015236;28;20465;-79
2022/08/29 03:15:29;;;;;;;10.65;3.92;;;15.40;99.90;;;;;;5034520;28;20041;-79
2022/08/29 03:17:58;;;;;;;5.70;3.22;;;15.40;99.90;;;;;;5037157;28;20041;-79
2022/08/29 03:20:24;;;;;;;8.32;3.35;;;15.40;99.90;;;;;;5021669;28;20033;-79
2022/08/29 03:22:52;;;;;;;9.27;3.42;;;15.50;99.90;;;;;;5039051;28;20116;-79
2022/08/29 03:25:20;;;;;;;9.43;3.65;;;15.40;99.90;;;;;;5057908;28;20445;-80
2022/08/29 03:27:46;;;;;;;6.45;3.42;;;15.40;99.90;;;;;;5038276;28;20076;-79
2022/08/29 03:30:14;;;;;;;8.20;3.80;;;15.60;99.90;;;;;;5033931;28;20087;-79
2022/08/29 03:32:41;;;;;;;7.25;3.42;;;15.50;99.90;;;;;;5030672;28;20037;-79
2022/08/29 03:35:08;;;;;;;6.10;2.88;;;15.40;99.90;;;;;;5037946;28;20120;-80
2022/08/29 03:37:34;;;;;;;6.35;3.40;;;15.40;99.90;;;;;;5034997;28;20139;-79
2022/08/29 03:40:00;;;;;;;6.32;3.05;;;15.60;99.90;;;;;;5017192;28;20038;-79
2022/08/29 03:42:26;;;;;;;8.07;3.38;;;15.30;99.90;;;;;;5020535;28;20087;-79
2022/08/29 03:44:51;;;;;;;5.35;3.40;;;15.30;99.90;;;;;;5042076;28;20436;-79
2022/08/29 03:47:17;;;;;;;8.32;3.67;;;15.30;99.90;;;;;;5050909;28;20401;-79
2022/08/29 03:49:44;;;;;;;9.75;3.35;;;15.30;99.90;;;;;;5010538;28;20068;-79
2022/08/29 03:52:09;;;;;;;8.43;3.35;;;15.50;99.90;;;;;;5025590;28;20052;-79
2022/08/29 03:54:36;;;;;;;9.48;3.92;;;15.30;99.90;;;;;;5029269;28;20046;-79
2022/08/29 03:57:06;;;;;;;7.45;3.20;;;15.30;99.90;;;;;;5031330;28;20083;-79
2022/08/29 03:59:35;;;;;;;6.78;3.50;;;15.20;99.90;;;;;;5038720;28;20127;-79
2022/08/29 04:02:01;;;;;;;8.38;4.30;;;15.20;99.90;;;;;;5036803;28;20045;-79
2022/08/29 04:07:14;;;;;;;8.27;3.47;;;15.50;99.90;;;;;;5052899;28;20038;-79
2022/08/29 04:09:43;;;;;;;8.75;3.50;;;15.10;99.90;;;;;;5032635;28;20052;-79
2022/08/29 04:12:12;;;;;;;8.55;3.67;;;15.10;99.90;;;;;;5031510;28;20051;-79
2022/08/29 04:14:38;;;;;;;6.38;3.75;;;15.10;99.90;;;;;;5034939;28;20041;-79
2022/08/29 04:17:05;;;;;;;7.90;3.60;;;15.10;99.90;;;;;;5034034;28;20108;-78
2022/08/29 04:19:34;;;;;;;7.00;3.60;;;15.00;99.90;;;;;;5016152;28;20067;-79
2022/08/29 04:22:00;;;;;;;6.85;3.58;;;15.00;99.90;;;;;;5050558;28;20037;-78
2022/08/29 04:24:26;;;;;;;8.07;3.92;;;15.00;99.90;;;;;;5046828;28;20103;-78
2022/08/29 04:26:51;;;;;;;8.07;3.30;;;15.00;99.90;;;;;;5029448;28;20033;-81
2022/08/29 04:29:17;;;;;;;6.03;3.45;;;15.00;99.90;;;;;;5039112;28;20049;-80
2022/08/29 04:31:44;;;;;;;9.82;3.80;;;15.30;99.90;;;;;;5033973;28;20041;-80
2022/08/29 04:34:12;;;;;;;7.35;3.53;;;15.00;99.90;;;;;;5025480;28;20033;-78
2022/08/29 04:36:40;;;;;;;6.45;3.45;;;15.00;99.90;;;;;;5041284;28;20040;-80
2022/08/29 04:39:09;;;;;;;7.55;3.33;;;15.00;99.90;;;;;;5027858;28;20034;-80
2022/08/29 04:41:35;;;;;;;7.38;3.55;;;14.90;99.90;;;;;;5040724;28;20126;-80
2022/08/29 04:44:02;;;;;;;6.35;3.28;;;14.90;99.90;;;;;;5033380;28;20116;-79
2022/08/29 04:46:28;;;;;;;6.47;3.20;;;14.90;99.90;;;;;;5038292;28;20402;-80
2022/08/29 04:48:54;;;;;;;10.15;3.63;;;14.80;99.90;;;;;;5031440;28;20038;-80
2022/08/29 04:51:21;;;;;;;7.57;3.55;;;14.80;99.90;;;;;;5046333;28;20037;-80
2022/08/29 04:53:48;;;;;;;7.88;3.30;;;14.80;99.90;;;;;;5023473;28;20453;-77
2022/08/29 04:56:14;;;;;;;7.57;3.45;;;14.80;99.90;;;;;;5027224;28;20557;-81
2022/08/29 04:58:42;;;;;;;6.85;3.47;;;14.80;99.90;;;;;;5010615;28;20038;-80
2022/08/29 05:01:11;;;;;;;7.82;3.33;;;14.70;99.90;;;;;;5036571;28;20037;-79
2022/08/29 05:03:37;;;;;;;6.75;3.47;;;14.70;99.90;;;;;;5035264;28;20390;-80
2022/08/29 05:06:06;;;;;;;9.95;3.38;;;14.70;99.90;;;;;;5014026;28;20052;-80
2022/08/29 05:08:34;;;;;;;9.45;3.63;;;14.70;99.90;;;;;;5015546;28;20052;-80
2022/08/29 05:11:00;;;;;;;7.78;3.38;;;14.70;99.90;;;;;;5016777;28;20887;-79
2022/08/29 05:13:27;;;;;;;8.90;3.60;;;15.00;99.90;;;;;;5039435;28;20124;-80
2022/08/29 05:15:52;;;;;;;6.55;3.53;;;14.90;99.90;;;;;;5021899;28;20033;-80
2022/08/29 05:18:18;;;;;;;8.68;3.50;;;14.80;99.90;;;;;;5031790;28;20059;-79
2022/08/29 05:20:47;;;;;;;10.48;3.40;;;14.80;99.90;;;;;;5029709;28;20044;-79
2022/08/29 05:23:37;;;;;;;7.25;3.63;;;14.80;99.90;;;;;;5016518;28;20065;-79
2022/08/29 05:26:05;;;;;;;8.15;3.60;;;14.80;99.90;;;;;;5016535;28;20087;-80
2022/08/29 05:28:38;;;;;;;7.80;3.75;;;14.80;99.90;;;;;;5032733;28;20059;-78
2022/08/29 05:31:04;;;;;;;;;;;14.90;99.90;;;;;;5033626;28;20033;-79
2022/08/29 05:33:29;;;;;;;7.97;3.70;;;14.90;99.90;;;;;;5014892;28;19921;-79
2022/08/29 05:35:57;;;;;;;8.70;3.75;;;15.20;99.90;;;;;;5004435;28;20056;-79
2022/08/29 05:38:23;;;;;;;9.63;4.35;;;15.00;99.90;;;;;;5028645;28;20037;-79
2022/08/29 05:40:48;;;;;;;9.60;4.10;;;15.00;99.90;;;;;;5025019;28;20141;-79
2022/08/29 05:43:14;;;;;;;9.52;4.03;;;15.00;99.90;;;;;;5032268;28;20401;-79
2022/08/29 05:45:40;;;;;;;8.68;4.22;;;15.00;99.90;;;;;;5033608;28;20094;-79
2022/08/29 05:48:09;;;;;;;9.80;3.97;;;15.00;99.90;;;;;;5033558;28;20192;-78
2022/08/29 05:50:40;;;;;;;10.10;4.30;;;15.10;99.90;;;;;;5050235;28;20041;-79
2022/08/29 05:53:07;;;;;;;11.75;4.25;;;15.10;99.90;;;;;;5016399;28;20041;-80
2022/08/29 05:55:38;;;;;;;6.47;3.45;;;15.20;99.90;;;;;;5039082;28;20065;-79
2022/08/29 05:58:04;;;;;;;7.05;3.78;;;15.30;99.90;;;;;;5035272;28;20100;-80
2022/08/29 06:00:30;;;;;;;9.50;3.65;;;15.30;99.90;;;;;;5034727;28;20060;-80
2022/08/29 06:02:55;;;;;;;8.15;4.40;;;15.30;99.90;;;;;;5024894;28;20037;-80
2022/08/29 06:05:21;;;;;;;7.88;3.88;;;15.40;99.90;;;;;;5028658;28;20033;-80
2022/08/29 06:07:48;;;;;;;8.80;3.40;;;15.40;99.90;;;;;;5030509;28;20041;-81
2022/08/29 06:10:14;;;;;;;7.18;3.47;;;15.90;99.90;;;;;;5032442;28;20037;-80
2022/08/29 06:12:39;;;;;;;6.88;2.95;;;15.40;99.90;;;;;;5021630;28;20041;-80
2022/08/29 06:15:07;;;;;;;6.10;3.28;;;15.50;99.90;;;;;;5025134;28;20571;-83
2022/08/29 06:17:33;;;;;;;9.55;3.60;;;15.50;99.90;;;;;;5016573;28;20048;-81
2022/08/29 06:19:59;;;;;;;7.45;3.20;;;15.60;99.90;;;;;;5010177;28;20042;-80
2022/08/29 06:22:25;;;;;;;9.35;3.55;;;15.60;99.90;;;;;;5027660;28;20053;-80
2022/08/29 06:24:53;;;;;;;7.75;3.28;;;15.70;99.90;;;;;;5021746;28;20044;-80
2022/08/29 06:27:21;;;;;;;6.18;3.17;;;15.80;99.90;;;;;;5019959;28;20402;-80
2022/08/29 06:29:47;;;;;;;7.95;3.60;;;15.70;99.90;;;;;;5023513;28;20109;-77
2022/08/29 06:32:13;;;;;;;7.18;3.22;;;15.80;99.90;;;;;;5011846;28;20046;-79
2022/08/29 06:34:56;;;;;;;7.22;3.20;;;15.80;99.90;;;;;;5010800;28;20045;-79
2022/08/29 06:37:22;;;;;;;6.78;3.28;;;15.80;99.90;;;;;;5036067;28;20041;-80
2022/08/29 06:39:47;;;;;;;6.07;3.05;;;15.90;99.90;;;;;;5020510;28;20140;-80
2022/08/29 06:42:13;;;;;;;8.90;3.22;;;15.90;99.90;;;;;;5030773;28;20076;-80
2022/08/29 06:44:39;;;;;;;8.00;3.75;;;16.00;99.90;;;;;;5017200;28;20462;-81
2022/08/29 06:47:04;;;;;;;5.80;3.10;;;16.00;99.90;;;;;;5042108;28;20049;-80
2022/08/29 06:49:32;;;;;;;10.30;4.15;;;16.10;99.90;;;;;;5016002;28;20109;-79
2022/08/29 06:51:58;;;;;;;7.80;3.10;;;16.10;99.90;;;;;;5028827;28;20037;-80
2022/08/29 06:54:25;;;;;;;7.38;3.10;;;16.30;99.90;;;;;;5039920;28;20342;-80
2022/08/29 06:56:52;;;;;;;8.85;3.10;;;16.30;99.90;;;;;;5023621;28;20081;-80
2022/08/29 06:59:18;;;;;;;8.60;3.13;;;16.50;99.90;;;;;;5032576;28;20111;-80
2022/08/29 07:01:47;;;;;;;6.15;3.10;;;16.50;99.90;;;;;;5034195;28;20037;-81
2022/08/29 07:04:13;;;;;;;5.55;2.78;;;16.50;99.90;;;;;;5035308;28;20079;-81
2022/08/29 07:06:39;;;;;;;5.88;2.80;;;16.60;99.90;;;;;;5026070;28;20050;-81
2022/08/29 07:09:05;;;;;;;6.15;3.00;;;16.70;99.90;;;;;;5036914;28;20037;-81
2022/08/29 07:11:33;;;;;;;6.50;3.28;;;16.70;99.90;;;;;;5028451;28;20046;-81
2022/08/29 07:14:05;;;;;;;7.53;3.00;;;16.80;99.90;;;;;;5047975;28;20088;-81
2022/08/29 07:16:34;;;;;;;6.05;3.25;;;16.70;99.90;;;;;;5025610;28;20045;-81
2022/08/29 07:19:02;;;;;;;7.38;2.88;;;16.90;99.90;;;;;;5046723;28;20033;-81
2022/08/29 07:21:28;;;;;;;5.88;2.90;;;17.10;99.90;;;;;;5033000;28;20045;-80
2022/08/29 07:23:55;;;;;;;6.70;2.45;;;16.90;99.90;;;;;;5028138;28;20434;-81
2022/08/29 07:26:35;;;;;;;6.93;3.28;;;16.90;99.90;;;;;;5025054;28;20065;-80
2022/08/29 07:29:05;;;;;;;8.57;2.70;;;17.00;99.90;;;;;;5036267;28;20084;-81
2022/08/29 07:31:32;;;;;;;8.98;2.90;;;17.00;99.90;;;;;;5049173;28;20181;-80
2022/08/29 07:33:58;;;;;;;9.75;2.92;;;17.00;99.90;;;;;;5035874;28;20037;-80
2022/08/29 07:36:23;;;;;;;6.13;2.65;;;17.10;99.90;;;;;;5036186;28;20033;-80
2022/08/29 07:38:49;;;;;;;7.25;3.08;;;17.10;99.90;;;;;;5034330;28;20124;-81
2022/08/29 07:41:17;;;;;;;9.18;3.00;;;17.10;99.90;;;;;;5032050;28;20402;-80
2022/08/29 07:43:43;;;;;;;8.63;2.85;;;17.10;99.90;;;;;;5039232;28;20133;-82
2022/08/29 07:46:14;;;;;;;4.90;2.33;;;17.20;99.90;;;;;;5011065;28;20046;-81
2022/08/29 07:48:41;;;;;;;7.47;2.40;;;17.30;99.90;;;;;;5049014;28;20045;-81
2022/08/29 07:51:12;;;;;;;6.90;3.00;;;17.30;99.90;;;;;;5033519;28;20112;-82
2022/08/29 07:53:40;;;;;;;7.90;2.78;;;17.40;99.90;;;;;;5015619;28;20075;-81
2022/08/29 07:56:09;;;;;;;5.20;2.53;;;17.50;99.90;;;;;;5032485;28;20065;-80
2022/08/29 07:58:35;;;;;;;6.35;2.53;;;17.60;99.90;;;;;;5018559;28;20041;-80
2022/08/29 08:01:02;;;;;;;7.60;2.55;;;17.60;99.90;;;;;;5034988;28;20044;-79
2022/08/29 08:03:29;;;;;;;5.65;2.28;;;17.80;99.90;;;;;;5032621;28;20207;-80
2022/08/29 08:05:55;;;;;;;8.98;2.70;;;17.80;99.90;;;;;;5025511;28;20053;-80
2022/08/29 08:08:20;;;;;;;5.70;2.30;;;17.90;99.90;;;;;;5033918;28;20548;-80
2022/08/29 08:10:46;;;;;;;5.05;2.63;;;18.00;99.90;;;;;;5025990;28;20056;-80
2022/08/29 08:13:13;;;;;;;5.90;2.00;;;18.10;99.90;;;;;;5017101;28;20048;-79
2022/08/29 08:15:39;;;;;;;9.07;2.40;;;18.10;99.90;;;;;;5050676;28;20041;-80
2022/08/29 08:18:09;;;;;;;7.85;2.58;;;18.20;99.90;;;;;;5028800;28;20034;-80
2022/08/29 08:20:36;;;;;;;7.05;2.45;;;18.30;99.90;;;;;;5032454;28;20033;-80
2022/08/29 08:23:02;;;;;;;5.75;2.50;;;18.40;99.90;;;;;;5028839;28;20237;-80
2022/08/29 08:25:27;;;;;;;7.65;2.50;;;18.60;99.90;;;;;;5030022;28;20115;-80
2022/08/29 08:27:53;;;;;;;6.28;2.60;;;18.70;99.90;;;;;;5042575;28;20044;-80
2022/08/29 08:30:20;;;;;;;6.20;2.22;;;18.80;99.90;;;;;;5031694;28;20106;-80
2022/08/29 08:32:47;;;;;;;4.32;2.20;;;18.90;99.90;;;;;;5015715;28;20041;-80
2022/08/29 08:35:14;;;;;;;10.65;2.88;;;19.00;99.90;;;;;;5018547;28;20494;-80
2022/08/29 08:37:41;;;;;;;5.65;2.40;;;19.10;99.90;;;;;;5048963;28;20053;-80
2022/08/29 08:40:07;;;;;;;6.55;2.33;;;19.10;99.90;;;;;;5033857;28;20033;-81
2022/08/29 08:42:38;;;;;;;6.32;2.55;;;19.10;99.90;;;;;;5026134;28;20402;-80
2022/08/29 08:45:33;;;;;;;4.65;2.17;;;19.10;99.90;;;;;;5015205;28;20045;-80
2022/08/29 08:48:04;;;;;;;5.93;2.25;;;19.10;99.90;;;;;;4994277;28;20053;-80
2022/08/29 08:50:52;;;;;;;4.97;2.10;;;19.10;99.90;;;;;;5033527;28;20092;-80
2022/08/29 08:53:26;;;;;;;6.45;2.10;;;19.20;99.90;;;;;;5034161;28;20130;-80
2022/08/29 08:55:54;;;;;;;8.40;2.47;;;19.30;99.90;;;;;;5014324;28;20400;-80
2022/08/29 08:58:52;;;;;;;3.60;2.00;;;19.30;99.90;;;;;;5034742;28;20037;-80
2022/08/29 09:01:30;;;;;;;5.38;2.08;;;19.30;99.90;;;;;;5033568;28;20497;-80
2022/08/29 09:04:06;;;;;;;6.68;2.10;;;19.40;99.90;;;;;;5039111;28;20033;-80
2022/08/29 09:06:40;;;;;;;7.90;2.42;;;19.30;99.90;;;;;;5018600;28;20042;-80
2022/08/29 09:09:19;;;;;;;5.38;1.90;;;19.40;99.90;;;;;;5033824;28;20131;-80
2022/08/29 09:12:20;;;;;;;4.82;2.10;;;19.50;99.90;;;;;;5031358;28;20050;-80
2022/08/29 09:15:09;;;;;;;7.63;2.00;;;19.50;99.90;;;;;;5000761;28;20095;-80
2022/08/29 09:17:49;;;;;;;7.15;2.30;;;19.60;99.90;;;;;;5032053;28;20041;-80
2022/08/29 09:20:19;;;;;;;8.00;2.22;;;19.70;99.90;;;;;;5022682;28;20049;-80
2022/08/29 09:22:57;;;;;;;4.80;1.92;;;19.80;99.90;;;;;;5017645;28;20038;-80
2022/08/29 09:25:24;;;;;;;5.82;2.38;;;19.90;99.90;;;;;;5038450;28;20055;-80
2022/08/29 09:27:50;;;;;;;5.35;2.17;;;20.00;99.90;;;;;;5025945;28;20521;-80
2022/08/29 09:30:23;;;;;;;6.95;2.03;;;20.00;99.90;;;;;;5031452;28;20038;-80
2022/08/29 09:32:58;;;;;;;6.65;2.70;;;20.00;99.90;;;;;;5018039;28;20370;-80
2022/08/29 09:35:39;;;;;;;6.28;2.40;;;20.10;99.90;;;;;;5035068;28;20037;-80
2022/08/29 09:38:17;;;;;;;9.15;2.60;;;20.10;99.90;;;;;;5039339;28;20053;-80
2022/08/29 09:40:48;;;;;;;5.93;2.28;;;20.20;99.90;;;;;;5029522;28;20053;-80
2022/08/29 09:43:37;;;;;;;5.95;2.33;;;20.30;99.90;;;;;;5030893;28;20072;-80
2022/08/29 09:46:41;;;;;;;9.18;2.50;;;20.40;99.90;;;;;;5051539;28;20037;-80
2022/08/29 09:49:17;;;;;;;10.50;2.75;;;20.60;99.90;;;;;;4974804;28;20430;-80
2022/08/29 09:51:48;;;;;;;5.70;2.25;;;20.90;99.90;;;;;;4984162;28;20038;-80
2022/08/29 09:54:26;;;;;;;6.10;2.22;;;21.10;99.90;;;;;;5006480;28;20129;-80
2022/08/29 09:56:57;;;;;;;5.68;2.60;;;21.30;99.90;;;;;;5034922;28;20556;-80
2022/08/29 09:59:26;;;;;;;;;;;21.40;99.90;;;;;;5036380;28;20094;-80
2022/08/29 10:02:31;;;;;;;6.07;2.20;;;21.70;99.90;;;;;;5038599;28;20360;-80
2022/08/29 10:05:05;;;;;;;6.63;2.03;;;21.50;99.90;;;;;;4976041;28;20516;-80
2022/08/29 10:07:51;;;;;;;5.00;2.28;;;21.80;99.90;;;;;;5010374;28;20057;-80
2022/08/29 10:10:22;;;;;;;7.50;2.40;;;22.10;99.90;;;;;;5035170;28;20047;-80
2022/08/29 10:13:11;;;;;;;5.35;2.40;;;22.30;99.90;;;;;;5019551;28;20037;-80
2022/08/29 10:15:59;;;;;;;4.72;1.92;;;22.30;99.90;;;;;;5034930;28;20601;-80
2022/08/29 10:19:00;;;;;;;6.75;2.40;;;22.30;99.90;;;;;;5052010;28;20068;-80
2022/08/29 10:21:54;;;;;;;7.88;2.45;;;22.40;99.90;;;;;;5002692;28;21040;-80
2022/08/29 10:24:38;;;;;;;6.10;2.10;;;22.60;99.90;;;;;;5016546;28;20041;-80
2022/08/29 10:27:10;;;;;;;5.43;2.55;;;23.00;99.80;;;;;;5035351;28;20371;-80
2022/08/29 10:29:38;;;;;;;5.75;2.42;;;23.30;99.90;;;;;;5034951;28;20044;-80
2022/08/29 10:32:07;;;;;;;6.00;2.25;;;23.60;99.70;;;;;;5040234;28;20041;-80
2022/08/29 10:34:41;;;;;;;7.60;2.63;;;23.80;98.70;;;;;;5028615;28;20125;-81
2022/08/29 10:37:39;;;;;;;6.22;2.50;;;23.80;98.20;;;;;;5038348;28;20037;-81
2022/08/29 10:40:23;;;;;;;5.78;2.33;;;23.70;96.50;;;;;;4989535;28;20056;-80
2022/08/29 10:42:55;;;;;;;8.43;2.47;;;23.40;96.80;;;;;;5052786;28;20430;-80
2022/08/29 10:45:43;;;;;;;5.68;2.42;;;23.20;97.10;;;;;;5045883;28;20059;-80
2022/08/29 10:48:20;;;;;;;7.65;2.33;;;22.90;96.90;;;;;;5033703;28;20125;-79
2022/08/29 10:51:21;;;;;;;6.63;2.15;;;22.80;97.60;;;;;;5036621;28;20066;-80
2022/08/29 10:53:56;;;;;;;5.65;2.40;;;22.90;97.80;;;;;;5037469;28;20128;-80
2022/08/29 10:56:42;;;;;;;7.03;2.38;;;23.20;98.20;;;;;;5037877;28;20061;-80
2022/08/29 10:59:57;;;;;;;7.38;2.92;;;23.50;98.20;;;;;;5052533;28;20120;-79
2022/08/29 11:02:45;;;;;;;5.43;2.40;;;23.80;95.70;;;;;;5014894;28;20052;-79
2022/08/29 11:05:22;;;;;;;7.28;2.30;;;24.00;96.00;;;;;;5038334;28;20076;-80
2022/08/29 11:07:52;;;;;;;4.15;2.33;;;24.10;95.50;;;;;;5005640;28;20030;-80
2022/08/29 11:10:29;;;;;;;5.97;2.50;;;24.00;95.10;;;;;;5035369;28;20088;-80
2022/08/29 11:13:04;;;;;;;6.43;2.20;;;23.80;95.00;;;;;;5050718;28;20076;-80
2022/08/29 11:15:42;;;;;;;4.70;2.30;;;23.60;95.40;;;;;;5038570;28;20491;-80
2022/08/29 11:18:31;;;;;;;4.85;2.25;;;23.40;95.30;;;;;;5048811;28;20440;-81
2022/08/29 11:21:08;;;;;;;7.53;2.40;;;23.30;95.10;;;;;;5021954;28;20033;-81
2022/08/29 11:23:45;;;;;;;6.60;2.42;;;23.30;95.70;;;;;;5024217;28;20060;-81
2022/08/29 11:26:16;;;;;;;3.67;1.85;;;23.30;95.40;;;;;;5039400;28;20033;-81
2022/08/29 11:28:49;;;;;;;5.15;2.20;;;23.30;95.50;;;;;;5050543;28;20493;-81
2022/08/29 11:31:34;;;;;;;6.15;2.53;;;23.30;95.60;;;;;;5058923;28;20075;-81
2022/08/29 11:34:24;;;;;;;7.10;2.25;;;23.30;95.80;;;;;;5039159;28;20049;-81
2022/08/29 11:36:59;;;;;;;4.50;2.35;;;23.50;95.70;;;;;;5037521;28;20049;-81
2022/08/29 11:40:07;;;;;;;7.20;2.50;;;23.80;95.30;;;;;;5035690;28;20053;-80
2022/08/29 11:42:37;;;;;;;6.22;2.65;;;24.10;94.70;;;;;;4988904;28;20046;-80
2022/08/29 11:45:05;;;;;;;7.68;2.50;;;24.40;95.30;;;;;;5032687;28;20083;-80
2022/08/29 11:47:46;;;;;;;6.53;2.55;;;24.70;95.00;;;;;;5017045;28;20052;-80
2022/08/29 11:50:21;;;;;;;5.03;2.63;;;24.80;94.20;;;;;;5035339;28;20069;-81
2022/08/29 11:53:06;;;;;;;5.72;2.45;;;24.80;93.50;;;;;;5028099;28;20171;-80
2022/08/29 11:55:39;;;;;;;5.38;2.60;;;24.70;93.30;;;;;;5051710;28;20071;-81
2022/08/29 11:58:25;;;;;;;6.05;2.50;;;24.40;93.10;;;;;;5038007;28;20045;-81
2022/08/29 12:00:53;;;;;;;5.55;2.63;;;24.10;93.30;;;;;;5015900;28;20200;-80
2022/08/29 12:03:34;;;;;;;5.45;2.80;;;23.80;93.40;;;;;;5015228;28;20037;-80
2022/08/29 12:06:34;;;;;;;6.30;2.28;;;23.60;93.60;;;;;;5031532;28;20041;-80
2022/08/29 12:09:23;;;;;;;6.50;2.50;;;23.30;93.90;;;;;;5020601;28;20042;-80
2022/08/29 12:11:57;;;;;;;6.85;2.28;;;23.10;94.20;;;;;;5022100;28;20164;-80
2022/08/29 12:14:37;;;;;;;7.88;2.50;;;22.90;94.60;;;;;;5033161;28;20044;-80
2022/08/29 12:17:11;;;;;;;6.97;2.58;;;22.70;94.90;;;;;;5032119;28;20144;-80
2022/08/29 12:20:12;;;;;;;6.55;3.05;;;22.50;95.10;;;;;;5035876;28;20029;-81
2022/08/29 12:22:59;;;;;;;7.47;2.97;;;22.40;95.60;;;;;;5018874;28;20065;-81
2022/08/29 12:25:48;;;;;;;7.70;3.22;;;22.30;95.80;;;;;;5039703;28;20457;-80
2022/08/29 12:28:17;;;;;;;7.35;2.65;;;22.30;96.10;;;;;;5011105;28;20068;-80
2022/08/29 12:30:58;;;;;;;7.82;2.92;;;22.20;96.40;;;;;;5031668;28;20472;-80
2022/08/29 12:33:37;;;;;;;8.55;3.10;;;22.10;96.50;;;;;;5033656;28;20091;-80
2022/08/29 12:36:24;;;;;;;8.25;3.10;;;22.20;96.80;;;;;;5032481;28;20048;-80
2022/08/29 12:39:28;;;;;;;9.60;3.55;;;22.20;96.90;;;;;;5031974;28;20508;-80
2022/08/29 12:42:07;;;;;;;11.57;3.50;;;22.40;97.30;;;;;;5029098;28;20056;-80
2022/08/29 12:44:42;;;;;;;10.43;3.45;;;22.50;97.30;;;;;;5032929;28;20056;-81
2022/08/29 12:47:30;;;;;;;8.82;3.35;;;22.50;96.90;;;;;;5024484;28;20033;-81
2022/08/29 12:50:00;;;;;;;9.20;3.38;;;22.50;96.60;;;;;;5030550;28;20468;-80
2022/08/29 12:52:32;;;;;;;8.20;3.60;;;22.50;96.60;;;;;;5016339;28;20415;-80
2022/08/29 12:55:32;;;;;;;7.72;3.05;;;22.40;96.70;;;;;;5044520;28;20045;-80
2022/08/29 12:57:58;;;;;;;9.00;3.05;;;22.40;96.90;;;;;;5024075;28;20095;-80
2022/08/29 13:00:29;;;;;;;9.30;3.50;;;22.40;96.90;;;;;;5020757;28;20038;-80
2022/08/29 13:02:58;;;;;;;8.18;3.17;;;22.50;97.10;;;;;;5041966;28;20042;-81
2022/08/29 13:05:24;;;;;;;7.80;3.28;;;22.50;97.10;;;;;;5008491;28;20329;-81
2022/08/29 13:08:15;;;;;;;7.55;3.25;;;22.40;97.00;;;;;;5008068;28;20037;-80
2022/08/29 13:10:54;;;;;;;6.85;3.30;;;22.50;97.00;;;;;;5028374;28;20050;-80
2022/08/29 13:13:23;;;;;;;5.65;2.80;;;22.40;96.80;;;;;;5021699;28;20278;-80
2022/08/29 13:15:50;;;;;;;8.13;3.97;;;22.40;96.80;;;;;;5019730;28;20482;-81